sensor_id;sensor_type;location;lat;lon;timestamp;temperature;humidity
48162;DHT22;33950;48.154;16.316;2023-04-25T00:01:36;11.30;95.10
48162;DHT22;33950;48.154;16.316;2023-04-25T00:04:23;11.40;95.20
48162;DHT22;33950;48.154;16.316;2023-04-25T00:07:09;11.30;95.10
48162;DHT22;33950;48.154;16.316;2023-04-25T00:09:56;11.20;95.20
48162;DHT22;33950;48.154;16.316;2023-04-25T00:12:44;11.30;95.20
48162;DHT22;33950;48.154;16.316;2023-04-25T00:15:30;11.20;95.10
48162;DHT22;33950;48.154;16.316;2023-04-25T00:18:16;11.20;95.10
48162;DHT22;33950;48.154;16.316;2023-04-25T00:21:03;11.10;95.10
48162;DHT22;33950;48.154;16.316;2023-04-25T00:23:52;11.10;95.10
48162;DHT22;33950;48.154;16.316;2023-04-25T00:26:38;11.10;95.10
48162;DHT22;33950;48.154;16.316;2023-04-25T00:29:26;11.10;95.10
48162;DHT22;33950;48.154;16.316;2023-04-25T00:32:12;11.10;95.20
48162;DHT22;33950;48.154;16.316;2023-04-25T00:34:58;11.10;95.20
48162;DHT22;33950;48.154;16.316;2023-04-25T00:37:44;11.10;95.10
48162;DHT22;33950;48.154;16.316;2023-04-25T00:43:01;11.10;94.90
48162;DHT22;33950;48.154;16.316;2023-04-25T00:45:51;11.00;94.70
48162;DHT22;33950;48.154;16.316;2023-04-25T00:48:37;11.10;94.80
48162;DHT22;33950;48.154;16.316;2023-04-25T00:51:24;11.10;94.90
48162;DHT22;33950;48.154;16.316;2023-04-25T00:54:12;11.00;94.80
48162;DHT22;33950;48.154;16.316;2023-04-25T00:56:58;11.00;94.80
48162;DHT22;33950;48.154;16.316;2023-04-25T00:59:46;11.10;95.10
48162;DHT22;33950;48.154;16.316;2023-04-25T01:02:35;11.00;94.80
48162;DHT22;33950;48.154;16.316;2023-04-25T01:05:22;11.00;94.90
48162;DHT22;33950;48.154;16.316;2023-04-25T01:08:08;11.00;95.00
48162;DHT22;33950;48.154;16.316;2023-04-25T01:10:54;10.90;94.80
48162;DHT22;33950;48.154;16.316;2023-04-25T01:13:41;11.00;94.80
48162;DHT22;33950;48.154;16.316;2023-04-25T01:16:27;11.00;94.70
48162;DHT22;33950;48.154;16.316;2023-04-25T01:19:16;10.90;94.60
48162;DHT22;33950;48.154;16.316;2023-04-25T01:22:05;11.00;94.50
48162;DHT22;33950;48.154;16.316;2023-04-25T01:24:52;10.90;94.80
48162;DHT22;33950;48.154;16.316;2023-04-25T01:27:39;10.90;94.30
48162;DHT22;33950;48.154;16.316;2023-04-25T01:30:26;10.90;94.30
48162;DHT22;33950;48.154;16.316;2023-04-25T01:33:14;10.90;94.50
48162;DHT22;33950;48.154;16.316;2023-04-25T01:36:01;11.00;94.30
48162;DHT22;33950;48.154;16.316;2023-04-25T01:38:49;11.00;94.30
48162;DHT22;33950;48.154;16.316;2023-04-25T01:41:36;11.10;94.40
48162;DHT22;33950;48.154;16.316;2023-04-25T01:44:22;11.20;94.30
48162;DHT22;33950;48.154;16.316;2023-04-25T01:47:08;11.10;94.60
48162;DHT22;33950;48.154;16.316;2023-04-25T01:49:54;11.10;94.40
48162;DHT22;33950;48.154;16.316;2023-04-25T01:52:40;11.10;94.50
48162;DHT22;33950;48.154;16.316;2023-04-25T01:55:28;11.00;94.40
48162;DHT22;33950;48.154;16.316;2023-04-25T01:58:14;10.90;94.50
48162;DHT22;33950;48.154;16.316;2023-04-25T02:01:00;11.00;94.50
48162;DHT22;33950;48.154;16.316;2023-04-25T02:03:46;10.90;94.60
48162;DHT22;33950;48.154;16.316;2023-04-25T02:06:32;10.90;94.80
48162;DHT22;33950;48.154;16.316;2023-04-25T02:09:18;10.90;94.90
48162;DHT22;33950;48.154;16.316;2023-04-25T02:12:08;10.80;94.90
48162;DHT22;33950;48.154;16.316;2023-04-25T02:14:54;10.80;95.00
48162;DHT22;33950;48.154;16.316;2023-04-25T02:17:40;10.80;95.00
48162;DHT22;33950;48.154;16.316;2023-04-25T02:20:27;10.80;95.00
48162;DHT22;33950;48.154;16.316;2023-04-25T02:23:13;10.80;94.90
48162;DHT22;33950;48.154;16.316;2023-04-25T02:26:01;10.70;94.90
48162;DHT22;33950;48.154;16.316;2023-04-25T02:28:48;10.70;95.00
48162;DHT22;33950;48.154;16.316;2023-04-25T02:31:34;10.70;95.10
48162;DHT22;33950;48.154;16.316;2023-04-25T02:34:21;10.60;95.40
48162;DHT22;33950;48.154;16.316;2023-04-25T02:37:07;10.70;95.20
48162;DHT22;33950;48.154;16.316;2023-04-25T02:39:53;10.70;95.10
48162;DHT22;33950;48.154;16.316;2023-04-25T02:42:39;10.70;95.00
48162;DHT22;33950;48.154;16.316;2023-04-25T02:45:26;10.60;95.30
48162;DHT22;33950;48.154;16.316;2023-04-25T02:48:12;10.60;95.20
48162;DHT22;33950;48.154;16.316;2023-04-25T02:50:58;10.60;95.10
48162;DHT22;33950;48.154;16.316;2023-04-25T02:53:45;10.60;95.00
48162;DHT22;33950;48.154;16.316;2023-04-25T02:56:31;10.60;94.90
48162;DHT22;33950;48.154;16.316;2023-04-25T02:59:17;10.60;94.90
48162;DHT22;33950;48.154;16.316;2023-04-25T03:02:04;10.50;95.00
48162;DHT22;33950;48.154;16.316;2023-04-25T03:04:50;10.50;94.90
48162;DHT22;33950;48.154;16.316;2023-04-25T03:07:36;10.60;94.80
48162;DHT22;33950;48.154;16.316;2023-04-25T03:10:25;10.50;94.80
48162;DHT22;33950;48.154;16.316;2023-04-25T03:13:11;10.50;94.80
48162;DHT22;33950;48.154;16.316;2023-04-25T03:15:57;10.50;94.80
48162;DHT22;33950;48.154;16.316;2023-04-25T03:18:45;10.50;94.80
48162;DHT22;33950;48.154;16.316;2023-04-25T03:21:31;10.50;94.90
48162;DHT22;33950;48.154;16.316;2023-04-25T03:24:18;10.50;94.80
48162;DHT22;33950;48.154;16.316;2023-04-25T03:27:04;10.60;94.80
48162;DHT22;33950;48.154;16.316;2023-04-25T03:29:50;10.50;94.70
48162;DHT22;33950;48.154;16.316;2023-04-25T03:32:36;10.40;94.60
48162;DHT22;33950;48.154;16.316;2023-04-25T03:35:23;10.50;94.60
48162;DHT22;33950;48.154;16.316;2023-04-25T03:38:09;10.40;94.40
48162;DHT22;33950;48.154;16.316;2023-04-25T03:40:55;10.40;94.70
48162;DHT22;33950;48.154;16.316;2023-04-25T03:43:42;10.40;94.50
48162;DHT22;33950;48.154;16.316;2023-04-25T03:46:28;10.50;94.50
48162;DHT22;33950;48.154;16.316;2023-04-25T03:49:14;10.50;94.30
48162;DHT22;33950;48.154;16.316;2023-04-25T03:52:02;10.60;94.30
48162;DHT22;33950;48.154;16.316;2023-04-25T03:54:48;10.50;94.30
48162;DHT22;33950;48.154;16.316;2023-04-25T03:57:34;10.50;94.30
48162;DHT22;33950;48.154;16.316;2023-04-25T04:00:20;10.40;94.20
48162;DHT22;33950;48.154;16.316;2023-04-25T04:03:06;10.40;94.20
48162;DHT22;33950;48.154;16.316;2023-04-25T04:05:52;10.40;94.10
48162;DHT22;33950;48.154;16.316;2023-04-25T04:08:40;10.30;94.10
48162;DHT22;33950;48.154;16.316;2023-04-25T04:11:26;10.30;94.00
48162;DHT22;33950;48.154;16.316;2023-04-25T04:14:12;10.60;94.00
48162;DHT22;33950;48.154;16.316;2023-04-25T04:16:58;10.30;93.80
48162;DHT22;33950;48.154;16.316;2023-04-25T04:19:44;10.30;93.80
48162;DHT22;33950;48.154;16.316;2023-04-25T04:22:30;10.30;93.90
48162;DHT22;33950;48.154;16.316;2023-04-25T04:25:18;10.30;94.20
48162;DHT22;33950;48.154;16.316;2023-04-25T04:28:05;10.30;93.90
48162;DHT22;33950;48.154;16.316;2023-04-25T04:30:51;10.60;93.70
48162;DHT22;33950;48.154;16.316;2023-04-25T04:33:38;10.30;93.70
48162;DHT22;33950;48.154;16.316;2023-04-25T04:36:24;10.30;93.80
48162;DHT22;33950;48.154;16.316;2023-04-25T04:39:12;10.30;93.80
48162;DHT22;33950;48.154;16.316;2023-04-25T04:42:00;10.30;93.90
48162;DHT22;33950;48.154;16.316;2023-04-25T04:44:47;10.30;93.90
48162;DHT22;33950;48.154;16.316;2023-04-25T04:47:33;10.30;94.00
48162;DHT22;33950;48.154;16.316;2023-04-25T04:50:19;10.40;93.90
48162;DHT22;33950;48.154;16.316;2023-04-25T04:53:06;10.40;93.80
48162;DHT22;33950;48.154;16.316;2023-04-25T04:55:52;10.40;93.80
48162;DHT22;33950;48.154;16.316;2023-04-25T04:58:39;10.40;93.80
48162;DHT22;33950;48.154;16.316;2023-04-25T05:01:26;10.40;93.90
48162;DHT22;33950;48.154;16.316;2023-04-25T05:04:12;10.20;94.10
48162;DHT22;33950;48.154;16.316;2023-04-25T05:06:58;10.10;94.00
48162;DHT22;33950;48.154;16.316;2023-04-25T05:09:44;10.10;94.40
48162;DHT22;33950;48.154;16.316;2023-04-25T05:12:31;10.00;94.20
48162;DHT22;33950;48.154;16.316;2023-04-25T05:15:18;10.00;94.50
48162;DHT22;33950;48.154;16.316;2023-04-25T05:18:04;9.90;94.60
48162;DHT22;33950;48.154;16.316;2023-04-25T05:20:50;10.00;94.50
48162;DHT22;33950;48.154;16.316;2023-04-25T05:23:36;10.10;94.50
48162;DHT22;33950;48.154;16.316;2023-04-25T05:26:23;10.10;94.50
48162;DHT22;33950;48.154;16.316;2023-04-25T05:29:09;10.20;94.40
48162;DHT22;33950;48.154;16.316;2023-04-25T05:31:57;10.40;94.40
48162;DHT22;33950;48.154;16.316;2023-04-25T05:34:43;10.60;94.40
48162;DHT22;33950;48.154;16.316;2023-04-25T05:37:29;10.70;94.30
48162;DHT22;33950;48.154;16.316;2023-04-25T05:40:16;10.70;94.50
48162;DHT22;33950;48.154;16.316;2023-04-25T05:43:03;10.90;94.10
48162;DHT22;33950;48.154;16.316;2023-04-25T05:45:49;10.70;94.10
48162;DHT22;33950;48.154;16.316;2023-04-25T05:48:36;10.60;94.00
48162;DHT22;33950;48.154;16.316;2023-04-25T05:51:23;10.60;93.90
48162;DHT22;33950;48.154;16.316;2023-04-25T05:54:09;10.70;93.80
48162;DHT22;33950;48.154;16.316;2023-04-25T05:56:56;10.60;93.60
48162;DHT22;33950;48.154;16.316;2023-04-25T05:59:42;10.60;93.50
48162;DHT22;33950;48.154;16.316;2023-04-25T06:02:28;10.60;93.60
48162;DHT22;33950;48.154;16.316;2023-04-25T06:05:16;10.70;93.40
48162;DHT22;33950;48.154;16.316;2023-04-25T06:08:02;10.70;93.30
48162;DHT22;33950;48.154;16.316;2023-04-25T06:10:48;10.70;93.00
48162;DHT22;33950;48.154;16.316;2023-04-25T06:13:35;10.80;93.10
48162;DHT22;33950;48.154;16.316;2023-04-25T06:16:21;10.90;93.30
48162;DHT22;33950;48.154;16.316;2023-04-25T06:19:09;11.00;92.50
48162;DHT22;33950;48.154;16.316;2023-04-25T06:21:57;11.00;92.50
48162;DHT22;33950;48.154;16.316;2023-04-25T06:24:43;11.00;92.40
48162;DHT22;33950;48.154;16.316;2023-04-25T06:27:31;11.10;92.20
48162;DHT22;33950;48.154;16.316;2023-04-25T06:30:17;11.20;92.20
48162;DHT22;33950;48.154;16.316;2023-04-25T06:33:08;11.30;91.50
48162;DHT22;33950;48.154;16.316;2023-04-25T06:35:54;11.40;91.80
48162;DHT22;33950;48.154;16.316;2023-04-25T06:38:42;11.40;91.80
48162;DHT22;33950;48.154;16.316;2023-04-25T06:41:28;11.50;91.90
48162;DHT22;33950;48.154;16.316;2023-04-25T06:44:14;11.60;91.40
48162;DHT22;33950;48.154;16.316;2023-04-25T06:47:01;11.70;91.60
48162;DHT22;33950;48.154;16.316;2023-04-25T06:49:47;11.80;91.20
48162;DHT22;33950;48.154;16.316;2023-04-25T06:52:33;11.90;91.10
48162;DHT22;33950;48.154;16.316;2023-04-25T06:55:20;12.00;91.20
48162;DHT22;33950;48.154;16.316;2023-04-25T06:58:06;12.10;91.20
48162;DHT22;33950;48.154;16.316;2023-04-25T07:00:53;12.20;90.70
48162;DHT22;33950;48.154;16.316;2023-04-25T07:03:39;12.20;90.30
48162;DHT22;33950;48.154;16.316;2023-04-25T07:06:25;12.20;90.50
48162;DHT22;33950;48.154;16.316;2023-04-25T07:09:12;12.30;90.40
48162;DHT22;33950;48.154;16.316;2023-04-25T07:12:00;12.00;90.40
48162;DHT22;33950;48.154;16.316;2023-04-25T07:14:47;12.00;90.90
48162;DHT22;33950;48.154;16.316;2023-04-25T07:17:33;12.10;90.60
48162;DHT22;33950;48.154;16.316;2023-04-25T07:20:19;12.30;90.40
48162;DHT22;33950;48.154;16.316;2023-04-25T07:23:05;12.40;90.50
48162;DHT22;33950;48.154;16.316;2023-04-25T07:25:52;12.50;90.50
48162;DHT22;33950;48.154;16.316;2023-04-25T07:28:39;12.50;90.00
48162;DHT22;33950;48.154;16.316;2023-04-25T07:31:25;12.60;90.10
48162;DHT22;33950;48.154;16.316;2023-04-25T07:34:12;12.60;90.00
48162;DHT22;33950;48.154;16.316;2023-04-25T07:36:58;12.90;89.80
48162;DHT22;33950;48.154;16.316;2023-04-25T07:39:45;12.70;89.90
48162;DHT22;33950;48.154;16.316;2023-04-25T07:42:32;12.80;90.00
48162;DHT22;33950;48.154;16.316;2023-04-25T07:45:20;12.70;89.60
48162;DHT22;33950;48.154;16.316;2023-04-25T07:48:06;12.60;89.30
48162;DHT22;33950;48.154;16.316;2023-04-25T07:50:52;12.40;89.60
48162;DHT22;33950;48.154;16.316;2023-04-25T07:53:38;12.50;90.10
48162;DHT22;33950;48.154;16.316;2023-04-25T07:56:24;12.50;90.10
48162;DHT22;33950;48.154;16.316;2023-04-25T07:59:10;12.60;90.50
48162;DHT22;33950;48.154;16.316;2023-04-25T08:01:58;12.90;90.30
48162;DHT22;33950;48.154;16.316;2023-04-25T08:04:44;13.20;90.40
48162;DHT22;33950;48.154;16.316;2023-04-25T08:07:30;13.30;89.50
48162;DHT22;33950;48.154;16.316;2023-04-25T08:10:19;13.40;88.60
48162;DHT22;33950;48.154;16.316;2023-04-25T08:13:06;13.50;89.40
48162;DHT22;33950;48.154;16.316;2023-04-25T08:15:52;13.50;87.00
48162;DHT22;33950;48.154;16.316;2023-04-25T08:18:39;13.50;88.30
48162;DHT22;33950;48.154;16.316;2023-04-25T08:21:26;13.60;87.40
48162;DHT22;33950;48.154;16.316;2023-04-25T08:24:13;13.60;86.80
48162;DHT22;33950;48.154;16.316;2023-04-25T08:26:59;13.50;86.20
48162;DHT22;33950;48.154;16.316;2023-04-25T08:29:45;13.30;87.10
48162;DHT22;33950;48.154;16.316;2023-04-25T08:32:31;13.40;87.90
48162;DHT22;33950;48.154;16.316;2023-04-25T08:35:19;13.50;87.50
48162;DHT22;33950;48.154;16.316;2023-04-25T08:38:06;13.60;86.80
48162;DHT22;33950;48.154;16.316;2023-04-25T08:40:54;13.70;86.60
48162;DHT22;33950;48.154;16.316;2023-04-25T08:43:42;13.80;86.40
48162;DHT22;33950;48.154;16.316;2023-04-25T08:46:30;14.00;85.00
48162;DHT22;33950;48.154;16.316;2023-04-25T08:49:19;13.90;84.10
48162;DHT22;33950;48.154;16.316;2023-04-25T08:52:08;13.90;85.30
48162;DHT22;33950;48.154;16.316;2023-04-25T08:54:57;14.00;85.50
48162;DHT22;33950;48.154;16.316;2023-04-25T08:57:43;13.90;85.10
48162;DHT22;33950;48.154;16.316;2023-04-25T09:00:30;13.90;84.90
48162;DHT22;33950;48.154;16.316;2023-04-25T09:03:17;13.80;87.60
48162;DHT22;33950;48.154;16.316;2023-04-25T09:06:03;13.60;88.60
48162;DHT22;33950;48.154;16.316;2023-04-25T09:08:51;13.50;87.90
48162;DHT22;33950;48.154;16.316;2023-04-25T09:11:38;13.60;88.80
48162;DHT22;33950;48.154;16.316;2023-04-25T09:14:24;13.60;88.30
48162;DHT22;33950;48.154;16.316;2023-04-25T09:17:11;13.50;88.10
48162;DHT22;33950;48.154;16.316;2023-04-25T09:20:06;13.50;86.90
48162;DHT22;33950;48.154;16.316;2023-04-25T09:23:03;13.30;86.90
48162;DHT22;33950;48.154;16.316;2023-04-25T09:25:53;13.30;88.20
48162;DHT22;33950;48.154;16.316;2023-04-25T09:28:39;12.50;93.10
48162;DHT22;33950;48.154;16.316;2023-04-25T09:31:25;11.20;95.30
48162;DHT22;33950;48.154;16.316;2023-04-25T09:34:11;10.60;96.90
48162;DHT22;33950;48.154;16.316;2023-04-25T09:37:01;10.30;97.80
48162;DHT22;33950;48.154;16.316;2023-04-25T09:39:48;10.20;98.50
48162;DHT22;33950;48.154;16.316;2023-04-25T09:42:41;10.30;98.70
48162;DHT22;33950;48.154;16.316;2023-04-25T09:45:29;10.40;99.90
48162;DHT22;33950;48.154;16.316;2023-04-25T09:48:17;10.50;99.80
48162;DHT22;33950;48.154;16.316;2023-04-25T09:51:05;10.80;99.90
48162;DHT22;33950;48.154;16.316;2023-04-25T09:53:52;11.00;99.60
48162;DHT22;33950;48.154;16.316;2023-04-25T09:56:38;11.10;99.60
48162;DHT22;33950;48.154;16.316;2023-04-25T09:59:26;11.50;99.90
48162;DHT22;33950;48.154;16.316;2023-04-25T10:02:14;11.70;99.90
48162;DHT22;33950;48.154;16.316;2023-04-25T10:05:05;11.90;99.90
48162;DHT22;33950;48.154;16.316;2023-04-25T10:07:52;12.00;99.70
48162;DHT22;33950;48.154;16.316;2023-04-25T10:10:40;11.90;98.10
48162;DHT22;33950;48.154;16.316;2023-04-25T10:13:27;11.50;96.40
48162;DHT22;33950;48.154;16.316;2023-04-25T10:16:16;11.30;96.90
48162;DHT22;33950;48.154;16.316;2023-04-25T10:19:02;11.00;95.90
48162;DHT22;33950;48.154;16.316;2023-04-25T10:21:52;10.80;95.20
48162;DHT22;33950;48.154;16.316;2023-04-25T10:24:38;10.70;96.20
48162;DHT22;33950;48.154;16.316;2023-04-25T10:27:27;10.30;96.80
48162;DHT22;33950;48.154;16.316;2023-04-25T10:30:14;10.00;97.90
48162;DHT22;33950;48.154;16.316;2023-04-25T10:33:16;9.80;97.20
48162;DHT22;33950;48.154;16.316;2023-04-25T10:36:09;9.80;97.00
48162;DHT22;33950;48.154;16.316;2023-04-25T10:38:56;9.90;96.70
48162;DHT22;33950;48.154;16.316;2023-04-25T10:41:47;10.30;96.90
48162;DHT22;33950;48.154;16.316;2023-04-25T10:44:34;11.10;97.00
48162;DHT22;33950;48.154;16.316;2023-04-25T10:47:34;11.80;95.60
48162;DHT22;33950;48.154;16.316;2023-04-25T10:50:22;12.30;94.10
48162;DHT22;33950;48.154;16.316;2023-04-25T10:53:24;12.60;94.00
48162;DHT22;33950;48.154;16.316;2023-04-25T10:56:11;12.70;92.60
48162;DHT22;33950;48.154;16.316;2023-04-25T10:59:04;13.80;96.50
48162;DHT22;33950;48.154;16.316;2023-04-25T11:01:52;13.50;94.50
48162;DHT22;33950;48.154;16.316;2023-04-25T11:04:41;14.20;94.70
48162;DHT22;33950;48.154;16.316;2023-04-25T11:07:34;14.90;93.70
48162;DHT22;33950;48.154;16.316;2023-04-25T11:10:25;15.40;94.00
48162;DHT22;33950;48.154;16.316;2023-04-25T11:13:11;16.10;93.30
48162;DHT22;33950;48.154;16.316;2023-04-25T11:15:57;16.60;91.50
48162;DHT22;33950;48.154;16.316;2023-04-25T11:18:43;16.50;91.70
48162;DHT22;33950;48.154;16.316;2023-04-25T11:21:30;16.20;89.60
48162;DHT22;33950;48.154;16.316;2023-04-25T11:24:19;15.90;90.00
48162;DHT22;33950;48.154;16.316;2023-04-25T11:27:05;15.80;88.20
48162;DHT22;33950;48.154;16.316;2023-04-25T11:29:54;15.50;87.60
48162;DHT22;33950;48.154;16.316;2023-04-25T11:32:40;12.20;96.70
48162;DHT22;33950;48.154;16.316;2023-04-25T11:35:27;10.10;93.90
48162;DHT22;33950;48.154;16.316;2023-04-25T11:38:13;11.40;97.10
48162;DHT22;33950;48.154;16.316;2023-04-25T11:41:02;11.00;98.40
48162;DHT22;33950;48.154;16.316;2023-04-25T11:43:48;10.60;99.00
48162;DHT22;33950;48.154;16.316;2023-04-25T11:46:35;10.30;99.40
48162;DHT22;33950;48.154;16.316;2023-04-25T11:49:21;10.10;99.70
48162;DHT22;33950;48.154;16.316;2023-04-25T11:52:08;9.90;98.90
48162;DHT22;33950;48.154;16.316;2023-04-25T11:54:54;9.80;99.30
48162;DHT22;33950;48.154;16.316;2023-04-25T11:57:45;9.80;99.90
48162;DHT22;33950;48.154;16.316;2023-04-25T12:00:31;10.00;99.90
48162;DHT22;33950;48.154;16.316;2023-04-25T12:03:18;10.30;99.70
48162;DHT22;33950;48.154;16.316;2023-04-25T12:06:05;10.50;99.00
48162;DHT22;33950;48.154;16.316;2023-04-25T12:09:02;10.70;98.50
48162;DHT22;33950;48.154;16.316;2023-04-25T12:11:53;10.80;99.10
48162;DHT22;33950;48.154;16.316;2023-04-25T12:14:46;11.10;99.10
48162;DHT22;33950;48.154;16.316;2023-04-25T12:17:34;11.80;99.50
48162;DHT22;33950;48.154;16.316;2023-04-25T12:20:23;12.50;98.40
48162;DHT22;33950;48.154;16.316;2023-04-25T12:23:10;13.80;95.50
48162;DHT22;33950;48.154;16.316;2023-04-25T12:25:57;12.80;93.60
48162;DHT22;33950;48.154;16.316;2023-04-25T12:28:46;13.00;93.70
48162;DHT22;33950;48.154;16.316;2023-04-25T12:31:34;13.60;93.00
48162;DHT22;33950;48.154;16.316;2023-04-25T12:34:21;13.60;91.80
48162;DHT22;33950;48.154;16.316;2023-04-25T12:37:07;13.50;91.60
48162;DHT22;33950;48.154;16.316;2023-04-25T12:39:53;13.60;91.90
48162;DHT22;33950;48.154;16.316;2023-04-25T12:42:39;14.20;90.40
48162;DHT22;33950;48.154;16.316;2023-04-25T12:45:25;14.00;90.50
48162;DHT22;33950;48.154;16.316;2023-04-25T12:48:13;13.70;89.70
48162;DHT22;33950;48.154;16.316;2023-04-25T12:50:59;13.40;91.30
48162;DHT22;33950;48.154;16.316;2023-04-25T12:53:45;13.50;90.90
48162;DHT22;33950;48.154;16.316;2023-04-25T12:56:31;13.60;90.20
48162;DHT22;33950;48.154;16.316;2023-04-25T12:59:17;13.60;90.00
48162;DHT22;33950;48.154;16.316;2023-04-25T13:02:03;13.50;88.10
48162;DHT22;33950;48.154;16.316;2023-04-25T13:04:51;13.90;89.30
48162;DHT22;33950;48.154;16.316;2023-04-25T13:07:37;14.40;86.00
48162;DHT22;33950;48.154;16.316;2023-04-25T13:10:23;14.90;85.60
48162;DHT22;33950;48.154;16.316;2023-04-25T13:13:09;15.10;81.70
48162;DHT22;33950;48.154;16.316;2023-04-25T13:15:55;15.20;81.80
48162;DHT22;33950;48.154;16.316;2023-04-25T13:18:41;15.40;80.70
48162;DHT22;33950;48.154;16.316;2023-04-25T13:21:30;16.10;80.50
48162;DHT22;33950;48.154;16.316;2023-04-25T13:24:16;16.30;79.00
48162;DHT22;33950;48.154;16.316;2023-04-25T13:27:02;16.30;79.20
48162;DHT22;33950;48.154;16.316;2023-04-25T13:29:49;16.40;77.40
48162;DHT22;33950;48.154;16.316;2023-04-25T13:32:35;16.30;77.90
48162;DHT22;33950;48.154;16.316;2023-04-25T13:35:24;16.40;76.60
48162;DHT22;33950;48.154;16.316;2023-04-25T13:38:12;16.30;76.80
48162;DHT22;33950;48.154;16.316;2023-04-25T13:40:58;16.40;77.60
48162;DHT22;33950;48.154;16.316;2023-04-25T13:43:45;16.30;77.20
48162;DHT22;33950;48.154;16.316;2023-04-25T13:46:32;16.50;77.80
48162;DHT22;33950;48.154;16.316;2023-04-25T13:49:18;16.80;77.20
48162;DHT22;33950;48.154;16.316;2023-04-25T13:52:04;16.60;78.40
48162;DHT22;33950;48.154;16.316;2023-04-25T13:54:53;16.30;79.00
48162;DHT22;33950;48.154;16.316;2023-04-25T13:57:40;16.40;78.20
48162;DHT22;33950;48.154;16.316;2023-04-25T14:00:26;16.00;76.80
48162;DHT22;33950;48.154;16.316;2023-04-25T14:03:12;15.70;76.40
48162;DHT22;33950;48.154;16.316;2023-04-25T14:05:58;15.20;77.50
48162;DHT22;33950;48.154;16.316;2023-04-25T14:08:44;15.20;78.00
48162;DHT22;33950;48.154;16.316;2023-04-25T14:11:32;15.20;77.90
48162;DHT22;33950;48.154;16.316;2023-04-25T14:14:18;15.10;78.40
48162;DHT22;33950;48.154;16.316;2023-04-25T14:17:04;15.00;79.70
48162;DHT22;33950;48.154;16.316;2023-04-25T14:19:50;15.10;79.40
48162;DHT22;33950;48.154;16.316;2023-04-25T14:22:36;15.20;79.90
48162;DHT22;33950;48.154;16.316;2023-04-25T14:25:27;15.50;79.70
48162;DHT22;33950;48.154;16.316;2023-04-25T14:28:15;16.00;80.40
48162;DHT22;33950;48.154;16.316;2023-04-25T14:31:01;16.20;80.00
48162;DHT22;33950;48.154;16.316;2023-04-25T14:33:47;16.50;78.90
48162;DHT22;33950;48.154;16.316;2023-04-25T14:36:36;16.40;78.40
48162;DHT22;33950;48.154;16.316;2023-04-25T14:39:22;16.30;78.90
48162;DHT22;33950;48.154;16.316;2023-04-25T14:42:08;16.30;80.70
48162;DHT22;33950;48.154;16.316;2023-04-25T14:44:56;16.70;80.50
48162;DHT22;33950;48.154;16.316;2023-04-25T14:47:42;16.90;80.00
48162;DHT22;33950;48.154;16.316;2023-04-25T14:50:28;17.00;78.60
48162;DHT22;33950;48.154;16.316;2023-04-25T14:53:14;17.20;77.50
48162;DHT22;33950;48.154;16.316;2023-04-25T14:56:00;17.40;77.10
48162;DHT22;33950;48.154;16.316;2023-04-25T14:58:46;17.00;75.50
48162;DHT22;33950;48.154;16.316;2023-04-25T15:01:34;16.80;76.00
48162;DHT22;33950;48.154;16.316;2023-04-25T15:04:20;16.00;76.70
48162;DHT22;33950;48.154;16.316;2023-04-25T15:07:06;15.80;78.90
48162;DHT22;33950;48.154;16.316;2023-04-25T15:09:53;16.10;78.90
48162;DHT22;33950;48.154;16.316;2023-04-25T15:12:39;16.40;77.00
48162;DHT22;33950;48.154;16.316;2023-04-25T15:15:26;15.90;77.80
48162;DHT22;33950;48.154;16.316;2023-04-25T15:18:14;15.70;79.50
48162;DHT22;33950;48.154;16.316;2023-04-25T15:21:00;15.20;81.50
48162;DHT22;33950;48.154;16.316;2023-04-25T15:23:47;15.30;82.90
48162;DHT22;33950;48.154;16.316;2023-04-25T15:26:33;14.90;83.90
48162;DHT22;33950;48.154;16.316;2023-04-25T15:29:19;14.70;86.30
48162;DHT22;33950;48.154;16.316;2023-04-25T15:32:06;14.80;84.90
48162;DHT22;33950;48.154;16.316;2023-04-25T15:34:53;15.40;83.00
48162;DHT22;33950;48.154;16.316;2023-04-25T15:37:39;15.20;81.30
48162;DHT22;33950;48.154;16.316;2023-04-25T15:40:26;15.20;81.00
48162;DHT22;33950;48.154;16.316;2023-04-25T15:43:12;15.30;81.00
48162;DHT22;33950;48.154;16.316;2023-04-25T15:46:00;15.60;81.00
48162;DHT22;33950;48.154;16.316;2023-04-25T15:48:46;15.50;80.00
48162;DHT22;33950;48.154;16.316;2023-04-25T15:51:34;14.90;80.90
48162;DHT22;33950;48.154;16.316;2023-04-25T15:54:20;14.60;81.50
48162;DHT22;33950;48.154;16.316;2023-04-25T15:57:06;14.30;82.40
48162;DHT22;33950;48.154;16.316;2023-04-25T15:59:57;14.30;83.00
48162;DHT22;33950;48.154;16.316;2023-04-25T16:02:44;14.20;82.80
48162;DHT22;33950;48.154;16.316;2023-04-25T16:05:31;14.30;82.80
48162;DHT22;33950;48.154;16.316;2023-04-25T16:08:18;14.30;83.30
48162;DHT22;33950;48.154;16.316;2023-04-25T16:11:04;14.20;83.40
48162;DHT22;33950;48.154;16.316;2023-04-25T16:13:50;14.20;83.40
48162;DHT22;33950;48.154;16.316;2023-04-25T16:16:36;14.20;83.90
48162;DHT22;33950;48.154;16.316;2023-04-25T16:19:23;14.20;84.10
48162;DHT22;33950;48.154;16.316;2023-04-25T16:22:09;14.50;84.10
48162;DHT22;33950;48.154;16.316;2023-04-25T16:24:59;14.60;84.20
48162;DHT22;33950;48.154;16.316;2023-04-25T16:27:45;14.60;84.10
48162;DHT22;33950;48.154;16.316;2023-04-25T16:30:31;14.50;84.50
48162;DHT22;33950;48.154;16.316;2023-04-25T16:33:17;14.40;84.70
48162;DHT22;33950;48.154;16.316;2023-04-25T16:36:04;14.30;85.30
48162;DHT22;33950;48.154;16.316;2023-04-25T16:38:50;14.30;85.70
48162;DHT22;33950;48.154;16.316;2023-04-25T16:41:38;14.20;85.00
48162;DHT22;33950;48.154;16.316;2023-04-25T16:44:24;14.40;84.60
48162;DHT22;33950;48.154;16.316;2023-04-25T16:47:10;14.40;84.40
48162;DHT22;33950;48.154;16.316;2023-04-25T16:49:58;14.40;84.10
48162;DHT22;33950;48.154;16.316;2023-04-25T16:52:44;14.50;84.00
48162;DHT22;33950;48.154;16.316;2023-04-25T16:55:30;14.20;84.30
48162;DHT22;33950;48.154;16.316;2023-04-25T16:58:19;13.60;85.20
48162;DHT22;33950;48.154;16.316;2023-04-25T17:01:05;13.20;86.70
48162;DHT22;33950;48.154;16.316;2023-04-25T17:03:51;13.00;87.60
48162;DHT22;33950;48.154;16.316;2023-04-25T17:06:37;12.70;87.70
48162;DHT22;33950;48.154;16.316;2023-04-25T17:09:24;12.50;88.40
48162;DHT22;33950;48.154;16.316;2023-04-25T17:12:10;12.50;89.20
48162;DHT22;33950;48.154;16.316;2023-04-25T17:14:57;12.60;88.80
48162;DHT22;33950;48.154;16.316;2023-04-25T17:17:45;12.50;89.00
48162;DHT22;33950;48.154;16.316;2023-04-25T17:20:31;12.50;89.10
48162;DHT22;33950;48.154;16.316;2023-04-25T17:23:17;12.30;89.40